createdAt,value
2022-09-03T00:01:01.811Z,74.89
2022-09-03T00:03:03.239Z,74.58
2022-09-03T00:05:05.392Z,74.26
2022-09-03T00:07:06.703Z,74.58
2022-09-03T00:09:08.402Z,74.47
2022-09-03T00:11:09.895Z,75.08
2022-09-03T00:13:11.477Z,75.04
2022-09-03T00:15:12.774Z,75.19
2022-09-03T00:17:14.079Z,75.15
2022-09-03T00:19:15.419Z,74.73
2022-09-03T00:21:16.779Z,74.93
2022-09-03T00:23:18.483Z,74.65
2022-09-03T00:25:19.831Z,75.39
2022-09-03T00:27:21.142Z,75.29
2022-09-03T00:29:22.446Z,74.90
2022-09-03T00:31:27.527Z,74.94
2022-09-03T00:33:28.985Z,75.36
2022-09-03T00:35:31.474Z,75.45
2022-09-03T00:37:33.700Z,74.94
2022-09-03T00:39:39.533Z,74.78
2022-09-03T00:41:41.596Z,74.86
2022-09-03T00:43:43.514Z,75.17
2022-09-03T00:45:44.856Z,75.00
2022-09-03T00:47:46.165Z,75.03
2022-09-03T00:49:47.555Z,74.97
2022-09-03T00:51:49.942Z,74.89
2022-09-03T00:53:52.118Z,75.05
2022-09-03T00:55:57.022Z,75.50
2022-09-03T00:57:58.324Z,75.00
2022-09-03T01:00:00.198Z,75.01
2022-09-03T01:02:01.658Z,74.85
2022-09-03T01:04:04.131Z,75.52
2022-09-03T01:06:05.462Z,75.55
2022-09-03T01:08:06.827Z,75.29
2022-09-03T01:10:08.125Z,75.45
2022-09-03T01:12:13.590Z,75.27
2022-09-03T01:14:14.944Z,75.73
2022-09-03T01:16:16.304Z,75.05
2022-09-03T01:18:17.678Z,75.39
2022-09-03T01:20:18.978Z,75.55
2022-09-03T01:22:21.081Z,75.30
2022-09-03T01:24:23.291Z,75.41
2022-09-03T01:26:24.606Z,75.55
2022-09-03T01:28:25.942Z,75.55
2022-09-03T01:30:27.247Z,75.59
2022-09-03T01:32:29.226Z,75.43
2022-09-03T01:34:30.531Z,75.40
2022-09-03T01:36:32.177Z,75.54
2022-09-03T01:38:33.526Z,75.42
2022-09-03T01:40:34.883Z,75.46
2022-09-03T01:42:36.227Z,75.66
2022-09-03T01:44:39.473Z,75.24
2022-09-03T01:46:40.933Z,75.78
2022-09-03T01:48:42.413Z,75.76
2022-09-03T01:50:43.807Z,75.38
2022-09-03T01:52:45.110Z,75.75
2022-09-03T01:54:46.406Z,75.55
2022-09-03T01:56:47.771Z,75.65
2022-09-03T01:58:49.127Z,76.07
2022-09-03T02:00:50.445Z,75.73
2022-09-03T02:02:51.861Z,75.65
2022-09-03T02:04:53.222Z,75.60
2022-09-03T02:06:54.595Z,76.05
2022-09-03T02:08:55.910Z,75.72
2022-09-03T02:11:00.005Z,76.01
2022-09-03T02:13:01.334Z,75.80
2022-09-03T02:15:03.837Z,75.80
2022-09-03T02:17:05.130Z,75.62
2022-09-03T02:19:06.475Z,76.07
2022-09-03T02:21:07.827Z,75.75
2022-09-03T02:23:09.155Z,75.73
2022-09-03T02:25:11.088Z,75.57
2022-09-03T02:27:12.399Z,76.07
2022-09-03T02:29:13.703Z,75.84
2022-09-03T02:31:15.088Z,75.92
2022-09-03T02:33:16.470Z,76.07
2022-09-03T02:35:17.777Z,75.95
2022-09-03T02:37:19.588Z,76.21
2022-09-03T02:39:21.037Z,75.95
2022-09-03T02:41:22.812Z,75.92
2022-09-03T02:43:25.939Z,75.98
2022-09-03T02:45:27.475Z,75.92
2022-09-03T02:47:28.779Z,76.22
2022-09-03T02:49:30.071Z,76.27
2022-09-03T02:51:31.418Z,75.97
2022-09-03T02:53:32.978Z,75.69
2022-09-03T02:55:34.283Z,75.80
2022-09-03T02:57:35.587Z,76.15
2022-09-03T02:59:36.902Z,76.14
2022-09-03T03:01:38.240Z,75.96
2022-09-03T03:03:43.345Z,76.07
2022-09-03T03:05:44.670Z,75.87
2022-09-03T03:07:45.983Z,76.17
2022-09-03T03:09:47.282Z,76.02
2022-09-03T03:11:50.585Z,75.73
2022-09-03T03:13:51.917Z,75.96
2022-09-03T03:15:53.259Z,75.86
2022-09-03T03:17:54.567Z,75.83
2022-09-03T03:19:55.974Z,75.78
2022-09-03T03:21:57.364Z,76.18
2022-09-03T03:23:58.671Z,75.96
2022-09-03T03:26:00.094Z,75.81
2022-09-03T03:28:01.399Z,75.74
2022-09-03T03:30:02.699Z,75.91
2022-09-03T03:32:04.046Z,75.84
2022-09-03T03:34:05.505Z,75.83
2022-09-03T03:36:07.116Z,76.02
2022-09-03T03:38:08.433Z,76.03
2022-09-03T03:40:09.782Z,76.26
2022-09-03T03:42:11.543Z,76.04
2022-09-03T03:44:12.887Z,76.33
2022-09-03T03:46:15.172Z,76.67
2022-09-03T03:48:16.719Z,76.64
2022-09-03T03:50:18.063Z,76.52
2022-09-03T03:52:19.358Z,76.07
2022-09-03T03:54:20.659Z,76.38
2022-09-03T03:56:21.963Z,76.34
2022-09-03T03:58:23.789Z,76.29
2022-09-03T04:00:25.393Z,76.35
2022-09-03T04:02:26.818Z,75.98
2022-09-03T04:04:28.231Z,76.14
2022-09-03T04:06:29.597Z,76.32
2022-09-03T04:08:30.900Z,76.11
2022-09-03T04:10:32.216Z,76.14
2022-09-03T04:12:33.556Z,76.30
2022-09-03T04:14:35.277Z,76.33
2022-09-03T04:16:36.656Z,76.18
2022-09-03T04:18:37.976Z,76.43
2022-09-03T04:20:39.300Z,76.40
2022-09-03T04:22:40.605Z,76.17
2022-09-03T04:24:41.939Z,76.04
2022-09-03T04:26:43.250Z,76.24
2022-09-03T04:28:45.230Z,76.52
2022-09-03T04:30:49.280Z,76.45
2022-09-03T04:32:53.582Z,76.67
2022-09-03T04:34:55.024Z,76.61
2022-09-03T04:36:59.103Z,76.78
2022-09-03T04:39:00.602Z,76.84
2022-09-03T04:41:01.949Z,76.32
2022-09-03T04:43:03.720Z,76.63
2022-09-03T04:45:05.035Z,76.72
2022-09-03T04:47:06.387Z,76.51
2022-09-03T04:49:09.444Z,76.55
2022-09-03T04:51:10.767Z,76.73
2022-09-03T04:53:12.068Z,76.25
2022-09-03T04:55:13.587Z,76.77
2022-09-03T04:57:14.919Z,76.51
2022-09-03T04:59:16.334Z,76.14
2022-09-03T05:01:17.669Z,76.98
2022-09-03T05:03:19.027Z,76.40
2022-09-03T05:05:20.366Z,76.39
2022-09-03T05:07:21.711Z,76.40
2022-09-03T05:09:23.591Z,76.28
2022-09-03T05:11:24.907Z,76.47
2022-09-03T05:13:26.271Z,76.30
2022-09-03T05:15:27.611Z,76.56
2022-09-03T05:17:28.939Z,76.54
2022-09-03T05:19:31.707Z,76.52
2022-09-03T05:21:33.011Z,76.59
2022-09-03T05:23:37.669Z,76.80
2022-09-03T05:25:39.218Z,77.04
2022-09-03T05:27:40.539Z,76.86
2022-09-03T05:29:42.082Z,77.00
2022-09-03T05:31:43.477Z,76.94
2022-09-03T05:33:44.857Z,76.52
2022-09-03T05:35:46.160Z,75.92
2022-09-03T05:37:48.027Z,76.29
2022-09-03T05:39:49.423Z,76.57
2022-09-03T05:41:52.348Z,76.51
2022-09-03T05:43:55.993Z,76.29
2022-09-03T05:45:57.413Z,76.65
2022-09-03T05:47:58.741Z,76.80
2022-09-03T05:50:00.584Z,76.75
2022-09-03T05:52:02.052Z,76.53
2022-09-03T05:54:03.899Z,76.68
2022-09-03T05:56:06.190Z,76.77
2022-09-03T05:58:07.563Z,76.80
2022-09-03T06:00:09.354Z,76.68
2022-09-03T06:02:11.128Z,77.00
2022-09-03T06:04:13.506Z,76.76
2022-09-03T06:06:15.070Z,76.74
2022-09-03T06:08:16.374Z,76.49
2022-09-03T06:10:20.290Z,76.92
2022-09-03T06:12:24.953Z,76.47
2022-09-03T06:14:26.779Z,76.70
2022-09-03T06:16:30.644Z,76.58
2022-09-03T06:18:33.517Z,76.87
2022-09-03T06:20:37.150Z,77.07
2022-09-03T06:22:38.718Z,77.15
2022-09-03T06:24:40.011Z,77.27
2022-09-03T06:26:42.839Z,76.73
2022-09-03T06:28:44.624Z,77.20
2022-09-03T06:30:45.957Z,76.94
2022-09-03T06:32:47.794Z,76.93
2022-09-03T06:34:49.102Z,77.17
2022-09-03T06:36:50.596Z,77.50
2022-09-03T06:38:51.906Z,77.07
2022-09-03T06:40:53.243Z,77.12
2022-09-03T06:42:55.028Z,77.21
2022-09-03T06:44:57.500Z,77.54
2022-09-03T06:47:01.450Z,77.58
2022-09-03T06:49:02.827Z,77.21
2022-09-03T06:51:04.284Z,77.36
2022-09-03T06:53:06.155Z,77.48
2022-09-03T06:55:07.515Z,77.59
2022-09-03T06:57:08.923Z,77.47
2022-09-03T06:59:10.312Z,77.06
2022-09-03T07:01:11.830Z,77.30
2022-09-03T07:03:13.179Z,77.11
2022-09-03T07:05:14.483Z,76.96
2022-09-03T07:07:16.402Z,76.94
2022-09-03T07:09:19.075Z,77.07
2022-09-03T07:11:22.427Z,77.00
2022-09-03T07:13:25.979Z,76.53
2022-09-03T07:15:27.354Z,76.24
2022-09-03T07:17:28.759Z,67.76
2022-09-03T07:19:30.087Z,64.95
2022-09-03T07:21:31.595Z,63.44
2022-09-03T07:23:33.150Z,62.21
2022-09-03T07:25:34.828Z,61.80
2022-09-03T07:27:36.270Z,64.81
2022-09-03T07:29:37.710Z,67.54
2022-09-03T07:31:39.048Z,68.12
2022-09-03T07:33:40.382Z,68.60
2022-09-03T07:35:41.862Z,68.78
2022-09-03T07:37:43.176Z,69.53
2022-09-03T07:39:44.730Z,69.70
2022-09-03T07:41:46.316Z,69.82
2022-09-03T07:43:47.695Z,70.27
2022-09-03T07:45:49.992Z,70.07
2022-09-03T07:47:51.539Z,70.16
2022-09-03T07:49:52.859Z,70.23
2022-09-03T07:51:56.734Z,70.21
2022-09-03T07:53:58.053Z,70.28
2022-09-03T07:55:59.403Z,70.54
2022-09-03T07:58:00.725Z,70.88
2022-09-03T08:00:02.066Z,71.01
2022-09-03T08:02:06.076Z,71.03
2022-09-03T08:04:09.725Z,70.78
2022-09-03T08:06:11.417Z,70.79
2022-09-03T08:08:20.991Z,70.17
2022-09-03T08:10:22.754Z,69.06
2022-09-03T08:12:24.166Z,69.49
2022-09-03T08:14:25.515Z,69.39
2022-09-03T08:16:26.888Z,68.56
2022-09-03T08:18:35.431Z,69.05
2022-09-03T08:20:37.645Z,68.36
2022-09-03T08:22:38.966Z,68.51
2022-09-03T08:24:40.567Z,69.43
2022-09-03T08:26:45.287Z,69.79
2022-09-03T08:28:49.311Z,68.98
2022-09-03T08:30:50.609Z,68.66
2022-09-03T08:32:52.055Z,68.74
2022-09-03T08:34:53.383Z,68.48
2022-09-03T08:36:54.754Z,68.64
2022-09-03T08:38:56.123Z,67.94
2022-09-03T08:40:57.430Z,68.76
2022-09-03T08:43:04.883Z,68.17
2022-09-03T08:45:07.938Z,67.56
2022-09-03T08:47:09.255Z,67.40
2022-09-03T08:49:10.615Z,67.05
2022-09-03T08:51:11.916Z,67.75
2022-09-03T08:53:13.266Z,68.03
2022-09-03T08:55:14.798Z,68.05
2022-09-03T08:57:16.103Z,67.78
2022-09-03T08:59:17.482Z,66.97
2022-09-03T09:01:18.903Z,67.38
2022-09-03T09:03:20.240Z,67.80
2022-09-03T09:05:21.558Z,68.18
2022-09-03T09:07:26.154Z,66.74
2022-09-03T09:09:27.788Z,66.75
2022-09-03T09:11:29.115Z,66.85
2022-09-03T09:13:30.435Z,66.87
2022-09-03T09:15:31.819Z,67.11
2022-09-03T09:17:33.650Z,67.00
2022-09-03T09:19:34.955Z,66.42
2022-09-03T09:21:36.304Z,67.82
2022-09-03T09:23:37.615Z,67.71
2022-09-03T09:25:39.418Z,67.44
2022-09-03T09:27:40.723Z,67.26
2022-09-03T09:29:42.049Z,67.42
2022-09-03T09:31:46.187Z,66.84
2022-09-03T09:33:47.532Z,67.09
2022-09-03T09:35:48.877Z,67.35
2022-09-03T09:37:50.227Z,67.45
2022-09-03T09:39:51.576Z,66.98
2022-09-03T09:41:54.025Z,67.46
2022-09-03T09:43:55.423Z,68.50
2022-09-03T09:45:56.760Z,68.60
2022-09-03T09:47:58.113Z,68.61
2022-09-03T09:49:59.776Z,69.10
2022-09-03T09:52:01.351Z,67.91
2022-09-03T09:54:02.727Z,68.29
2022-09-03T09:56:04.108Z,68.68
2022-09-03T09:58:05.592Z,68.42
2022-09-03T10:00:09.426Z,68.33
2022-09-03T10:02:10.761Z,68.35
2022-09-03T10:04:14.986Z,68.26
2022-09-03T10:06:34.916Z,68.79
2022-09-03T10:08:36.223Z,68.53
2022-09-03T10:10:37.971Z,68.42
2022-09-03T10:12:40.129Z,68.41
2022-09-03T10:14:42.026Z,69.03
2022-09-03T10:16:48.980Z,69.45
2022-09-03T10:18:50.327Z,69.48
2022-09-03T10:20:51.813Z,69.52
2022-09-03T10:22:56.821Z,69.37
2022-09-03T10:24:58.715Z,69.58
2022-09-03T10:27:00.090Z,69.13
2022-09-03T10:29:01.410Z,68.91
2022-09-03T10:31:02.768Z,69.07
2022-09-03T10:33:04.574Z,69.23
2022-09-03T10:35:10.214Z,69.56
2022-09-03T10:37:11.578Z,69.88
2022-09-03T10:39:12.876Z,69.51
2022-09-03T10:41:14.184Z,69.77
2022-09-03T10:43:16.627Z,69.78
2022-09-03T10:45:18.103Z,69.97
2022-09-03T10:47:19.978Z,69.19
2022-09-03T10:49:21.290Z,68.54
2022-09-03T10:51:22.607Z,68.12
2022-09-03T10:55:25.298Z,68.22
2022-09-03T10:57:26.815Z,67.67
2022-09-03T10:59:29.253Z,67.86
2022-09-03T11:01:30.806Z,68.31
2022-09-03T11:03:32.938Z,69.13
2022-09-03T11:05:36.127Z,69.19
2022-09-03T11:07:37.775Z,69.08
2022-09-03T11:09:39.918Z,69.04
2022-09-03T11:11:41.250Z,68.67
2022-09-03T11:13:42.591Z,68.47
2022-09-03T11:15:43.968Z,68.05
2022-09-03T11:17:45.335Z,67.90
2022-09-03T11:19:51.277Z,67.49
2022-09-03T11:21:52.613Z,67.30
2022-09-03T11:23:55.177Z,67.75
2022-09-03T11:25:56.690Z,67.30
2022-09-03T11:27:58.399Z,67.72
2022-09-03T11:30:00.439Z,68.23
2022-09-03T11:32:01.764Z,69.45
2022-09-03T11:34:03.066Z,69.87
2022-09-03T11:36:04.425Z,69.93
2022-09-03T11:38:05.773Z,70.30
2022-09-03T11:40:07.904Z,69.94
2022-09-03T11:42:09.245Z,69.99
2022-09-03T11:44:10.551Z,70.31
2022-09-03T11:46:12.843Z,70.33
2022-09-03T11:48:14.215Z,69.99
2022-09-03T11:50:15.520Z,70.26
2022-09-03T11:52:17.013Z,69.57
2022-09-03T11:54:21.019Z,69.39
2022-09-03T11:56:22.970Z,69.45
2022-09-03T11:58:24.450Z,69.34
2022-09-03T12:00:25.783Z,69.45
2022-09-03T12:02:28.142Z,69.79
2022-09-03T12:04:30.310Z,69.36
2022-09-03T12:06:31.665Z,68.91
2022-09-03T12:08:33.490Z,69.01
2022-09-03T12:10:34.962Z,69.60
2022-09-03T12:12:36.263Z,69.77
2022-09-03T12:14:37.657Z,69.62
2022-09-03T12:16:39.018Z,69.40
2022-09-03T12:18:40.346Z,68.34
2022-09-03T12:20:41.695Z,68.34
2022-09-03T12:22:43.114Z,68.91
2022-09-03T12:24:45.063Z,69.29
2022-09-03T12:26:46.489Z,69.58
2022-09-03T12:28:47.820Z,69.82
2022-09-03T12:30:49.393Z,69.99
2022-09-03T12:32:52.314Z,70.09
2022-09-03T12:34:53.694Z,70.13
2022-09-03T12:36:55.012Z,70.24
2022-09-03T12:39:12.981Z,70.28
2022-09-03T12:41:22.998Z,70.56
2022-09-03T12:43:49.974Z,70.86
2022-09-03T12:48:12.469Z,70.93
2022-09-03T12:50:13.864Z,71.03
2022-09-03T12:52:15.610Z,71.15
2022-09-03T12:54:17.635Z,70.98
2022-09-03T12:56:19.160Z,70.75
2022-09-03T12:58:20.470Z,70.68
2022-09-03T13:00:23.086Z,70.54
2022-09-03T13:02:24.472Z,70.71
2022-09-03T13:04:26.873Z,71.02
2022-09-03T13:06:28.454Z,70.55
2022-09-03T13:08:29.806Z,70.20
2022-09-03T13:10:31.302Z,70.53
2022-09-03T13:12:33.552Z,70.65
2022-09-03T13:14:35.034Z,70.89
2022-09-03T13:16:36.417Z,71.33
2022-09-03T13:18:37.791Z,71.46
2022-09-03T13:20:39.161Z,71.17
2022-09-03T13:22:40.479Z,71.29
2022-09-03T13:24:41.927Z,71.42
2022-09-03T13:26:44.341Z,71.54
2022-09-03T13:28:45.659Z,71.58
2022-09-03T13:30:47.023Z,71.63
2022-09-03T13:32:51.125Z,71.69
2022-09-03T13:34:52.881Z,71.74
2022-09-03T13:36:54.250Z,71.83
2022-09-03T13:38:55.582Z,71.44
2022-09-03T13:40:56.926Z,71.90
2022-09-03T13:42:59.765Z,71.71
2022-09-03T13:45:01.067Z,72.22
2022-09-03T13:47:02.374Z,72.40
2022-09-03T13:49:22.184Z,72.43
2022-09-03T13:51:23.543Z,72.38
2022-09-03T13:53:25.155Z,72.23
2022-09-03T13:55:27.629Z,72.29
2022-09-03T13:57:28.957Z,72.59
2022-09-03T13:59:30.295Z,72.51
2022-09-03T14:01:31.679Z,72.71
2022-09-03T14:03:33.369Z,72.93
2022-09-03T14:05:35.070Z,72.48
2022-09-03T14:07:36.495Z,72.74
2022-09-03T14:09:37.915Z,72.37
2022-09-03T14:11:39.260Z,72.27
2022-09-03T14:13:40.562Z,72.42
2022-09-03T14:15:45.460Z,72.55
2022-09-03T14:17:47.131Z,73.46
2022-09-03T14:19:48.505Z,70.11
2022-09-03T14:21:49.807Z,69.27
2022-09-03T14:23:51.294Z,69.13
2022-09-03T14:25:52.695Z,68.96
2022-09-03T14:27:54.015Z,68.33
2022-09-03T14:29:55.330Z,69.16
2022-09-03T14:31:56.717Z,69.73
2022-09-03T14:33:58.054Z,68.00
2022-09-03T14:35:59.366Z,69.04
2022-09-03T14:38:00.844Z,67.58
2022-09-03T14:40:02.514Z,68.00
2022-09-03T14:42:03.931Z,67.55
2022-09-03T14:44:05.226Z,67.56
2022-09-03T14:46:06.741Z,68.38
2022-09-03T14:48:08.114Z,69.38
2022-09-03T14:50:09.424Z,70.18
2022-09-03T14:52:11.643Z,71.12
2022-09-03T14:54:12.983Z,68.97
2022-09-03T14:56:14.300Z,68.71
2022-09-03T14:58:15.606Z,68.36
2022-09-03T15:00:18.461Z,67.11
2022-09-03T15:02:21.450Z,67.58
2022-09-03T15:04:22.805Z,67.69
2022-09-03T15:06:30.712Z,67.89
2022-09-03T15:08:32.420Z,67.57
2022-09-03T15:10:36.368Z,67.99
2022-09-03T15:12:37.706Z,67.62
2022-09-03T15:14:39.090Z,68.17
2022-09-03T15:16:40.516Z,66.04
2022-09-03T15:18:41.887Z,68.49
2022-09-03T15:20:43.182Z,68.77
2022-09-03T15:22:49.309Z,68.99
2022-09-03T15:24:51.382Z,69.64
2022-09-03T15:26:52.732Z,69.36
2022-09-03T15:28:54.034Z,69.68
2022-09-03T15:30:55.409Z,69.48
2022-09-03T15:32:56.951Z,69.98
2022-09-03T15:34:58.282Z,70.13
2022-09-03T15:37:02.779Z,70.15
2022-09-03T15:39:06.522Z,69.87
2022-09-03T15:41:08.381Z,70.25
2022-09-03T15:43:09.754Z,69.98
2022-09-03T15:45:11.596Z,69.96
2022-09-03T15:47:14.211Z,70.10
2022-09-03T15:49:16.046Z,70.30
2022-09-03T15:51:17.410Z,69.99
2022-09-03T15:53:19.155Z,70.20
2022-09-03T15:55:20.487Z,70.34
2022-09-03T15:57:21.934Z,70.31
2022-09-03T15:59:23.698Z,70.15
2022-09-03T16:01:25.055Z,70.07
2022-09-03T16:03:27.308Z,70.15
2022-09-03T16:05:29.111Z,70.61
2022-09-03T16:07:30.415Z,70.21
2022-09-03T16:09:31.732Z,70.36
2022-09-03T16:11:33.068Z,70.45
2022-09-03T16:13:34.471Z,70.74
2022-09-03T16:15:35.789Z,70.90
2022-09-03T16:17:39.314Z,70.73
2022-09-03T16:19:40.627Z,70.57
2022-09-03T16:21:41.922Z,70.46
2022-09-03T16:23:43.295Z,70.35
2022-09-03T16:25:45.206Z,67.32
2022-09-03T16:27:46.519Z,68.96
2022-09-03T16:29:47.835Z,69.04
2022-09-03T16:31:49.213Z,69.09
2022-09-03T16:33:50.564Z,69.23
2022-09-03T16:35:51.911Z,69.39
2022-09-03T16:37:53.222Z,69.59
2022-09-03T16:39:54.558Z,69.93
2022-09-03T16:41:55.947Z,69.98
2022-09-03T16:43:57.349Z,70.32
2022-09-03T16:46:00.992Z,70.22
2022-09-03T16:48:02.431Z,68.52
2022-09-03T16:50:03.772Z,69.49
2022-09-03T16:52:05.087Z,69.15
2022-09-03T16:54:07.987Z,69.15
2022-09-03T16:56:09.309Z,67.80
2022-09-03T16:58:10.626Z,66.89
2022-09-03T17:00:12.587Z,68.38
2022-09-03T17:02:37.078Z,69.78
2022-09-03T17:04:35.500Z,69.93
2022-09-03T17:06:37.004Z,70.36
2022-09-03T17:08:38.325Z,70.04
2022-09-03T17:10:39.707Z,69.57
2022-09-03T17:12:41.028Z,68.01
2022-09-03T17:14:42.347Z,67.32
2022-09-03T17:16:43.759Z,67.25
2022-09-03T17:18:45.102Z,66.75
2022-09-03T17:20:49.396Z,66.62
2022-09-03T17:22:51.258Z,67.26
2022-09-03T17:24:59.156Z,68.62
2022-09-03T17:27:04.253Z,68.99
2022-09-03T17:29:05.834Z,67.10
2022-09-03T17:31:09.950Z,68.24
2022-09-03T17:33:17.310Z,68.70
2022-09-03T17:35:18.750Z,69.21
2022-09-03T17:37:20.504Z,68.67
2022-09-03T17:39:21.861Z,68.15
2022-09-03T17:41:23.267Z,68.30
2022-09-03T17:43:24.718Z,68.00
2022-09-03T17:45:28.414Z,68.17
2022-09-03T17:47:29.815Z,68.05
2022-09-03T17:49:31.176Z,69.21
2022-09-03T17:51:32.546Z,70.32
2022-09-03T17:53:33.851Z,70.85
2022-09-03T17:55:35.228Z,70.68
2022-09-03T17:57:36.535Z,70.88
2022-09-03T17:59:37.842Z,70.99
2022-09-03T18:01:39.232Z,70.87
2022-09-03T18:03:40.647Z,70.59
2022-09-03T18:05:42.011Z,71.00
2022-09-03T18:07:45.647Z,70.81
2022-09-03T18:09:46.957Z,70.74
2022-09-03T18:11:48.312Z,70.68
2022-09-03T18:13:49.714Z,70.71
2022-09-03T18:15:51.610Z,70.67
2022-09-03T18:17:53.012Z,70.70
2022-09-03T18:20:12.806Z,71.06
2022-09-03T18:22:32.734Z,71.01
2022-09-03T18:24:52.586Z,70.83
2022-09-03T18:27:12.503Z,71.10
2022-09-03T18:29:32.330Z,70.81
2022-09-03T18:31:52.215Z,68.89
2022-09-03T18:34:12.132Z,68.63
2022-09-03T18:36:32.064Z,68.42
2022-09-03T18:38:51.962Z,67.56
2022-09-03T18:41:12.615Z,67.77
2022-09-03T18:43:32.573Z,67.80
2022-09-03T18:48:32.615Z,68.30
2022-09-03T18:50:52.959Z,69.53
2022-09-03T18:53:13.157Z,69.42
2022-09-03T18:55:33.043Z,67.94
2022-09-03T18:57:52.975Z,67.18
2022-09-03T19:00:13.210Z,67.02
2022-09-03T19:02:33.323Z,68.00
2022-09-03T19:04:53.567Z,68.22
2022-09-03T19:07:13.534Z,67.82
2022-09-03T19:09:33.511Z,68.02
2022-09-03T19:11:55.851Z,68.11
2022-09-03T19:14:15.887Z,66.58
2022-09-03T19:16:37.115Z,67.70
2022-09-03T19:18:57.264Z,68.19
2022-09-03T19:21:17.580Z,67.96
2022-09-03T19:23:37.999Z,67.39
2022-09-03T19:25:58.471Z,68.41
2022-09-03T19:28:21.629Z,67.84
2022-09-03T19:30:41.990Z,69.11
2022-09-03T19:33:11.933Z,68.44
2022-09-03T19:35:36.951Z,67.88
2022-09-03T19:37:57.234Z,67.51
2022-09-03T19:40:17.212Z,68.05
2022-09-03T19:42:37.963Z,68.27
2022-09-03T19:44:58.712Z,67.94
2022-09-03T19:47:18.791Z,68.00
2022-09-03T19:49:38.723Z,68.15
2022-09-03T19:51:59.038Z,68.35
2022-09-03T19:54:19.045Z,68.08
2022-09-03T19:56:38.918Z,68.27
2022-09-03T19:58:58.615Z,68.17
2022-09-03T20:01:18.599Z,68.00
2022-09-03T20:03:38.687Z,68.22
2022-09-03T20:05:58.663Z,67.84
2022-09-03T20:08:18.810Z,67.71
2022-09-03T20:10:22.852Z,67.91
2022-09-03T20:12:24.195Z,67.61
2022-09-03T20:14:25.521Z,67.79
2022-09-03T20:16:27.044Z,68.12
2022-09-03T20:18:28.348Z,68.30
2022-09-03T20:20:29.643Z,67.94
2022-09-03T20:22:31.038Z,68.06
2022-09-03T20:24:33.359Z,67.90
2022-09-03T20:26:34.715Z,69.11
2022-09-03T20:28:36.042Z,68.84
2022-09-03T20:30:37.474Z,69.01
2022-09-03T20:32:38.859Z,69.80
2022-09-03T20:34:40.167Z,69.14
2022-09-03T20:36:41.519Z,68.62
2022-09-03T20:38:42.831Z,68.23
2022-09-03T20:40:44.143Z,68.42
2022-09-03T20:42:45.479Z,68.27
2022-09-03T20:44:46.827Z,68.24
2022-09-03T20:46:48.166Z,67.73
2022-09-03T20:48:49.498Z,67.92
2022-09-03T20:50:53.223Z,67.91
2022-09-03T20:52:54.599Z,68.11
2022-09-03T20:54:57.017Z,68.21
2022-09-03T20:56:58.793Z,68.23
2022-09-03T20:59:00.238Z,68.45
2022-09-03T21:01:02.841Z,68.54
2022-09-03T21:03:04.335Z,68.67
2022-09-03T21:05:06.374Z,68.28
2022-09-03T21:07:07.922Z,68.65
2022-09-03T21:09:09.264Z,68.23
2022-09-03T21:11:10.689Z,68.16
2022-09-03T21:13:16.104Z,68.23
2022-09-03T21:15:17.447Z,68.55
2022-09-03T21:17:19.671Z,68.14
2022-09-03T21:19:21.386Z,68.07
2022-09-03T21:21:22.934Z,68.06
2022-09-03T21:23:24.238Z,67.91
2022-09-03T21:25:25.597Z,68.37
2022-09-03T21:27:26.895Z,68.25
2022-09-03T21:29:28.238Z,68.77
2022-09-03T21:31:29.533Z,66.80
2022-09-03T21:33:30.895Z,68.03
2022-09-03T21:35:32.201Z,68.07
2022-09-03T21:37:33.517Z,67.91
2022-09-03T21:39:35.767Z,68.36
2022-09-03T21:41:37.829Z,68.17
2022-09-03T21:43:39.163Z,68.14
2022-09-03T21:45:40.574Z,68.24
2022-09-03T21:47:41.999Z,68.27
2022-09-03T21:49:43.307Z,68.13
2022-09-03T21:51:44.615Z,68.24
2022-09-03T21:53:45.955Z,68.23
2022-09-03T21:55:47.282Z,68.08
2022-09-03T21:57:48.591Z,68.04
2022-09-03T21:59:49.946Z,68.56
2022-09-03T22:01:51.698Z,68.35
2022-09-03T22:03:53.881Z,68.26
2022-09-03T22:05:55.191Z,68.61
2022-09-03T22:07:56.500Z,68.52
2022-09-03T22:09:57.815Z,68.25
2022-09-03T22:11:59.131Z,68.67
2022-09-03T22:14:00.439Z,68.66
2022-09-03T22:16:01.741Z,68.77
2022-09-03T22:18:03.046Z,68.80
2022-09-03T22:20:04.395Z,68.91
2022-09-03T22:22:05.707Z,68.80
2022-09-03T22:24:18.937Z,68.65
2022-09-03T22:26:23.571Z,68.72
2022-09-03T22:28:25.731Z,68.91
2022-09-03T22:30:27.156Z,68.82
2022-09-03T22:32:28.484Z,68.44
2022-09-03T22:34:29.778Z,68.94
2022-09-03T22:36:31.100Z,68.40
2022-09-03T22:38:32.434Z,68.69
2022-09-03T22:40:33.749Z,68.36
2022-09-03T22:42:35.074Z,68.21
2022-09-03T22:44:36.462Z,68.13
2022-09-03T22:46:37.757Z,68.11
2022-09-03T22:48:39.067Z,68.82
2022-09-03T22:50:40.407Z,68.75
2022-09-03T22:52:41.759Z,69.16
2022-09-03T22:54:43.063Z,68.75
2022-09-03T22:56:44.367Z,67.77
2022-09-03T22:58:45.774Z,68.31
2022-09-03T23:00:47.106Z,68.07
2022-09-03T23:02:48.466Z,68.27
2022-09-03T23:04:49.766Z,68.76
2022-09-03T23:06:53.339Z,68.20
2022-09-03T23:08:54.762Z,68.30
2022-09-03T23:10:56.378Z,68.17
2022-09-03T23:12:57.683Z,68.01
2022-09-03T23:15:01.283Z,67.81
2022-09-03T23:17:06.081Z,67.64
2022-09-03T23:21:21.412Z,67.89
2022-09-03T23:23:22.762Z,68.67
2022-09-03T23:25:24.068Z,69.17
2022-09-03T23:27:26.066Z,69.54
2022-09-03T23:29:27.438Z,69.99
2022-09-03T23:31:28.776Z,70.41
2022-09-03T23:33:30.107Z,70.60
2022-09-03T23:35:31.526Z,71.01
2022-09-03T23:37:34.849Z,70.83
2022-09-03T23:39:36.288Z,71.25
2022-09-03T23:41:37.787Z,71.31
2022-09-03T23:43:39.089Z,71.40
2022-09-03T23:45:40.552Z,71.31
2022-09-03T23:47:45.881Z,71.85
2022-09-03T23:49:47.382Z,71.61
2022-09-03T23:51:49.826Z,71.85
2022-09-03T23:53:51.130Z,72.08
2022-09-03T23:55:55.978Z,71.96
2022-09-03T23:57:57.479Z,72.09
2022-09-03T23:59:58.787Z,71.95
